sensor_id;sensor_type;location;lat;lon;timestamp;P1;durP1;ratioP1;P2;durP2;ratioP2
19364;SDS011;9818;48.382;10.850;2023-05-28T00:00:27;6.33;;;3.97;;
19364;SDS011;9818;48.382;10.850;2023-05-28T00:02:58;5.40;;;4.33;;
19364;SDS011;9818;48.382;10.850;2023-05-28T00:05:27;6.70;;;4.50;;
19364;SDS011;9818;48.382;10.850;2023-05-28T00:07:56;4.70;;;4.00;;
19364;SDS011;9818;48.382;10.850;2023-05-28T00:10:25;5.77;;;4.33;;
19364;SDS011;9818;48.382;10.850;2023-05-28T00:12:54;4.77;;;3.87;;
19364;SDS011;9818;48.382;10.850;2023-05-28T00:15:23;5.73;;;4.40;;
19364;SDS011;9818;48.382;10.850;2023-05-28T00:17:52;6.17;;;4.27;;
19364;SDS011;9818;48.382;10.850;2023-05-28T00:20:24;4.33;;;3.70;;
19364;SDS011;9818;48.382;10.850;2023-05-28T00:22:53;5.30;;;4.10;;
19364;SDS011;9818;48.382;10.850;2023-05-28T00:25:22;5.10;;;3.90;;
19364;SDS011;9818;48.382;10.850;2023-05-28T00:27:50;5.67;;;3.80;;
19364;SDS011;9818;48.382;10.850;2023-05-28T00:30:19;5.90;;;4.43;;
19364;SDS011;9818;48.382;10.850;2023-05-28T00:32:50;6.37;;;4.37;;
19364;SDS011;9818;48.382;10.850;2023-05-28T00:35:18;6.33;;;4.27;;
19364;SDS011;9818;48.382;10.850;2023-05-28T00:37:49;5.70;;;4.27;;
19364;SDS011;9818;48.382;10.850;2023-05-28T00:40:18;6.00;;;4.47;;
19364;SDS011;9818;48.382;10.850;2023-05-28T00:42:47;5.23;;;4.07;;
19364;SDS011;9818;48.382;10.850;2023-05-28T00:45:16;4.97;;;4.30;;
19364;SDS011;9818;48.382;10.850;2023-05-28T00:47:46;4.73;;;3.70;;
19364;SDS011;9818;48.382;10.850;2023-05-28T00:50:15;6.70;;;4.43;;
19364;SDS011;9818;48.382;10.850;2023-05-28T00:52:45;5.63;;;4.03;;
19364;SDS011;9818;48.382;10.850;2023-05-28T00:55:20;4.03;;;3.63;;
19364;SDS011;9818;48.382;10.850;2023-05-28T00:57:48;5.77;;;4.00;;
19364;SDS011;9818;48.382;10.850;2023-05-28T01:00:19;5.23;;;4.20;;
19364;SDS011;9818;48.382;10.850;2023-05-28T01:02:48;5.83;;;4.17;;
19364;SDS011;9818;48.382;10.850;2023-05-28T01:05:17;4.43;;;3.90;;
19364;SDS011;9818;48.382;10.850;2023-05-28T01:07:46;4.67;;;3.93;;
19364;SDS011;9818;48.382;10.850;2023-05-28T01:10:15;5.53;;;3.83;;
19364;SDS011;9818;48.382;10.850;2023-05-28T01:12:47;4.93;;;4.00;;
19364;SDS011;9818;48.382;10.850;2023-05-28T01:15:16;4.80;;;3.93;;
19364;SDS011;9818;48.382;10.850;2023-05-28T01:17:45;5.50;;;4.37;;
19364;SDS011;9818;48.382;10.850;2023-05-28T01:20:14;6.33;;;4.17;;
19364;SDS011;9818;48.382;10.850;2023-05-28T01:22:45;6.43;;;4.10;;
19364;SDS011;9818;48.382;10.850;2023-05-28T01:25:23;4.40;;;4.00;;
19364;SDS011;9818;48.382;10.850;2023-05-28T01:27:52;6.13;;;4.50;;
19364;SDS011;9818;48.382;10.850;2023-05-28T01:30:21;5.67;;;4.23;;
19364;SDS011;9818;48.382;10.850;2023-05-28T01:32:50;6.50;;;4.10;;
19364;SDS011;9818;48.382;10.850;2023-05-28T01:35:18;4.67;;;3.90;;
19364;SDS011;9818;48.382;10.850;2023-05-28T01:37:49;6.50;;;4.30;;
19364;SDS011;9818;48.382;10.850;2023-05-28T01:40:25;6.47;;;4.40;;
19364;SDS011;9818;48.382;10.850;2023-05-28T01:42:54;5.23;;;4.10;;
19364;SDS011;9818;48.382;10.850;2023-05-28T01:45:24;4.40;;;3.97;;
19364;SDS011;9818;48.382;10.850;2023-05-28T01:47:53;6.30;;;4.70;;
19364;SDS011;9818;48.382;10.850;2023-05-28T01:50:22;4.60;;;3.53;;
19364;SDS011;9818;48.382;10.850;2023-05-28T01:52:52;5.83;;;3.90;;
19364;SDS011;9818;48.382;10.850;2023-05-28T01:55:21;6.13;;;3.97;;
19364;SDS011;9818;48.382;10.850;2023-05-28T01:57:52;6.00;;;4.33;;
19364;SDS011;9818;48.382;10.850;2023-05-28T02:00:21;4.70;;;4.10;;
19364;SDS011;9818;48.382;10.850;2023-05-28T02:02:50;5.83;;;4.70;;
19364;SDS011;9818;48.382;10.850;2023-05-28T02:05:19;5.67;;;4.00;;
19364;SDS011;9818;48.382;10.850;2023-05-28T02:07:47;6.67;;;4.47;;
19364;SDS011;9818;48.382;10.850;2023-05-28T02:10:16;4.73;;;4.10;;
19364;SDS011;9818;48.382;10.850;2023-05-28T02:12:45;5.87;;;4.23;;
19364;SDS011;9818;48.382;10.850;2023-05-28T02:15:16;4.70;;;3.87;;
19364;SDS011;9818;48.382;10.850;2023-05-28T02:17:45;6.57;;;4.40;;
19364;SDS011;9818;48.382;10.850;2023-05-28T02:20:14;5.13;;;4.23;;
19364;SDS011;9818;48.382;10.850;2023-05-28T02:22:44;5.67;;;4.27;;
19364;SDS011;9818;48.382;10.850;2023-05-28T02:25:13;7.63;;;4.47;;
19364;SDS011;9818;48.382;10.850;2023-05-28T02:27:42;4.70;;;4.17;;
19364;SDS011;9818;48.382;10.850;2023-05-28T02:30:11;5.43;;;4.10;;
19364;SDS011;9818;48.382;10.850;2023-05-28T02:32:44;4.77;;;4.27;;
19364;SDS011;9818;48.382;10.850;2023-05-28T02:35:12;7.23;;;4.30;;
19364;SDS011;9818;48.382;10.850;2023-05-28T02:37:41;4.73;;;3.97;;
19364;SDS011;9818;48.382;10.850;2023-05-28T02:40:10;5.60;;;4.10;;
19364;SDS011;9818;48.382;10.850;2023-05-28T02:42:39;5.00;;;4.17;;
19364;SDS011;9818;48.382;10.850;2023-05-28T02:45:08;5.23;;;3.80;;
19364;SDS011;9818;48.382;10.850;2023-05-28T02:47:38;6.70;;;4.23;;
19364;SDS011;9818;48.382;10.850;2023-05-28T02:50:09;6.13;;;4.13;;
19364;SDS011;9818;48.382;10.850;2023-05-28T02:52:38;5.63;;;3.93;;
19364;SDS011;9818;48.382;10.850;2023-05-28T02:55:07;5.00;;;3.73;;
19364;SDS011;9818;48.382;10.850;2023-05-28T02:57:36;5.60;;;4.20;;
19364;SDS011;9818;48.382;10.850;2023-05-28T03:00:05;5.40;;;4.10;;
19364;SDS011;9818;48.382;10.850;2023-05-28T03:02:35;5.53;;;3.80;;
19364;SDS011;9818;48.382;10.850;2023-05-28T03:05:04;5.53;;;4.03;;
19364;SDS011;9818;48.382;10.850;2023-05-28T03:07:36;5.57;;;3.87;;
19364;SDS011;9818;48.382;10.850;2023-05-28T03:10:05;5.50;;;3.80;;
19364;SDS011;9818;48.382;10.850;2023-05-28T03:12:34;4.63;;;3.83;;
19364;SDS011;9818;48.382;10.850;2023-05-28T03:15:03;5.53;;;4.47;;
19364;SDS011;9818;48.382;10.850;2023-05-28T03:17:32;6.00;;;4.10;;
19364;SDS011;9818;48.382;10.850;2023-05-28T03:20:01;5.63;;;3.60;;
19364;SDS011;9818;48.382;10.850;2023-05-28T03:22:38;4.30;;;3.87;;
19364;SDS011;9818;48.382;10.850;2023-05-28T03:25:08;5.50;;;4.07;;
19364;SDS011;9818;48.382;10.850;2023-05-28T03:27:37;5.60;;;4.00;;
19364;SDS011;9818;48.382;10.850;2023-05-28T03:30:06;5.17;;;4.03;;
19364;SDS011;9818;48.382;10.850;2023-05-28T03:32:36;4.77;;;4.10;;
19364;SDS011;9818;48.382;10.850;2023-05-28T03:35:05;6.63;;;4.40;;
19364;SDS011;9818;48.382;10.850;2023-05-28T03:37:34;5.73;;;3.70;;
19364;SDS011;9818;48.382;10.850;2023-05-28T03:40:06;4.63;;;3.90;;
19364;SDS011;9818;48.382;10.850;2023-05-28T03:42:36;4.90;;;3.73;;
19364;SDS011;9818;48.382;10.850;2023-05-28T03:45:06;7.03;;;4.00;;
19364;SDS011;9818;48.382;10.850;2023-05-28T03:47:35;8.10;;;4.07;;
19364;SDS011;9818;48.382;10.850;2023-05-28T03:50:04;4.67;;;4.00;;
19364;SDS011;9818;48.382;10.850;2023-05-28T03:52:34;4.83;;;4.07;;
19364;SDS011;9818;48.382;10.850;2023-05-28T03:55:02;3.93;;;3.50;;
19364;SDS011;9818;48.382;10.850;2023-05-28T03:57:34;4.20;;;3.80;;
19364;SDS011;9818;48.382;10.850;2023-05-28T04:00:05;4.93;;;3.73;;
19364;SDS011;9818;48.382;10.850;2023-05-28T04:02:35;6.53;;;4.07;;
19364;SDS011;9818;48.382;10.850;2023-05-28T04:05:04;5.33;;;4.10;;
19364;SDS011;9818;48.382;10.850;2023-05-28T04:07:33;5.70;;;4.13;;
19364;SDS011;9818;48.382;10.850;2023-05-28T04:10:02;4.77;;;4.00;;
19364;SDS011;9818;48.382;10.850;2023-05-28T04:12:33;4.77;;;4.13;;
19364;SDS011;9818;48.382;10.850;2023-05-28T04:15:02;6.33;;;4.07;;
19364;SDS011;9818;48.382;10.850;2023-05-28T04:17:32;7.20;;;4.10;;
19364;SDS011;9818;48.382;10.850;2023-05-28T04:20:01;6.90;;;3.97;;
19364;SDS011;9818;48.382;10.850;2023-05-28T04:22:32;6.03;;;4.43;;
19364;SDS011;9818;48.382;10.850;2023-05-28T04:25:01;5.60;;;4.30;;
19364;SDS011;9818;48.382;10.850;2023-05-28T04:27:33;4.20;;;3.47;;
19364;SDS011;9818;48.382;10.850;2023-05-28T04:30:01;5.73;;;3.77;;
19364;SDS011;9818;48.382;10.850;2023-05-28T04:32:30;4.73;;;3.70;;
19364;SDS011;9818;48.382;10.850;2023-05-28T04:34:59;6.23;;;4.40;;
19364;SDS011;9818;48.382;10.850;2023-05-28T04:37:28;4.97;;;3.87;;
19364;SDS011;9818;48.382;10.850;2023-05-28T04:39:58;5.43;;;3.80;;
19364;SDS011;9818;48.382;10.850;2023-05-28T04:42:27;6.13;;;4.17;;
19364;SDS011;9818;48.382;10.850;2023-05-28T04:44:58;5.17;;;3.50;;
19364;SDS011;9818;48.382;10.850;2023-05-28T04:47:26;5.00;;;3.73;;
19364;SDS011;9818;48.382;10.850;2023-05-28T04:49:55;5.30;;;4.03;;
19364;SDS011;9818;48.382;10.850;2023-05-28T04:52:25;4.47;;;4.07;;
19364;SDS011;9818;48.382;10.850;2023-05-28T04:54:55;5.57;;;3.90;;
19364;SDS011;9818;48.382;10.850;2023-05-28T04:57:24;5.53;;;4.20;;
19364;SDS011;9818;48.382;10.850;2023-05-28T04:59:53;5.43;;;3.93;;
19364;SDS011;9818;48.382;10.850;2023-05-28T05:02:24;5.37;;;3.70;;
19364;SDS011;9818;48.382;10.850;2023-05-28T05:04:53;4.83;;;3.97;;
19364;SDS011;9818;48.382;10.850;2023-05-28T05:07:22;5.97;;;3.70;;
19364;SDS011;9818;48.382;10.850;2023-05-28T05:09:51;5.73;;;4.07;;
19364;SDS011;9818;48.382;10.850;2023-05-28T05:12:20;5.03;;;4.20;;
19364;SDS011;9818;48.382;10.850;2023-05-28T05:14:49;6.43;;;4.47;;
19364;SDS011;9818;48.382;10.850;2023-05-28T05:17:17;4.97;;;3.93;;
19364;SDS011;9818;48.382;10.850;2023-05-28T05:19:48;5.87;;;4.17;;
19364;SDS011;9818;48.382;10.850;2023-05-28T05:22:17;6.00;;;4.13;;
19364;SDS011;9818;48.382;10.850;2023-05-28T05:24:46;5.13;;;3.90;;
19364;SDS011;9818;48.382;10.850;2023-05-28T05:27:15;6.10;;;3.80;;
19364;SDS011;9818;48.382;10.850;2023-05-28T05:29:43;5.27;;;3.60;;
19364;SDS011;9818;48.382;10.850;2023-05-28T05:32:12;4.90;;;3.93;;
19364;SDS011;9818;48.382;10.850;2023-05-28T05:34:40;5.73;;;4.23;;
19364;SDS011;9818;48.382;10.850;2023-05-28T05:37:12;4.90;;;4.03;;
19364;SDS011;9818;48.382;10.850;2023-05-28T05:39:40;4.90;;;4.03;;
19364;SDS011;9818;48.382;10.850;2023-05-28T05:42:09;5.83;;;3.90;;
19364;SDS011;9818;48.382;10.850;2023-05-28T05:44:38;5.47;;;3.97;;
19364;SDS011;9818;48.382;10.850;2023-05-28T05:47:06;4.33;;;3.73;;
19364;SDS011;9818;48.382;10.850;2023-05-28T05:49:35;4.90;;;3.90;;
19364;SDS011;9818;48.382;10.850;2023-05-28T05:52:04;5.37;;;3.80;;
19364;SDS011;9818;48.382;10.850;2023-05-28T05:54:35;4.83;;;3.53;;
19364;SDS011;9818;48.382;10.850;2023-05-28T05:57:04;4.17;;;3.40;;
19364;SDS011;9818;48.382;10.850;2023-05-28T05:59:33;7.00;;;3.77;;
19364;SDS011;9818;48.382;10.850;2023-05-28T06:02:02;5.07;;;3.70;;
19364;SDS011;9818;48.382;10.850;2023-05-28T06:04:30;5.83;;;4.00;;
19364;SDS011;9818;48.382;10.850;2023-05-28T06:07:00;6.47;;;4.33;;
19364;SDS011;9818;48.382;10.850;2023-05-28T06:09:31;5.37;;;3.77;;
19364;SDS011;9818;48.382;10.850;2023-05-28T06:12:03;6.20;;;4.03;;
19364;SDS011;9818;48.382;10.850;2023-05-28T06:14:32;5.10;;;3.57;;
19364;SDS011;9818;48.382;10.850;2023-05-28T06:17:00;6.17;;;4.33;;
19364;SDS011;9818;48.382;10.850;2023-05-28T06:19:30;7.90;;;4.17;;
19364;SDS011;9818;48.382;10.850;2023-05-28T06:21:59;6.37;;;4.00;;
19364;SDS011;9818;48.382;10.850;2023-05-28T06:24:28;5.73;;;4.27;;
19364;SDS011;9818;48.382;10.850;2023-05-28T06:26:57;4.83;;;3.83;;
19364;SDS011;9818;48.382;10.850;2023-05-28T06:29:28;4.83;;;3.73;;
19364;SDS011;9818;48.382;10.850;2023-05-28T06:31:57;5.23;;;3.73;;
19364;SDS011;9818;48.382;10.850;2023-05-28T06:34:25;5.33;;;3.97;;
19364;SDS011;9818;48.382;10.850;2023-05-28T06:36:54;5.20;;;3.43;;
19364;SDS011;9818;48.382;10.850;2023-05-28T06:39:23;3.77;;;3.47;;
19364;SDS011;9818;48.382;10.850;2023-05-28T06:41:52;5.63;;;3.80;;
19364;SDS011;9818;48.382;10.850;2023-05-28T06:44:20;5.57;;;3.83;;
19364;SDS011;9818;48.382;10.850;2023-05-28T06:46:51;4.37;;;3.50;;
19364;SDS011;9818;48.382;10.850;2023-05-28T06:49:20;4.43;;;3.70;;
19364;SDS011;9818;48.382;10.850;2023-05-28T06:51:49;6.53;;;3.80;;
19364;SDS011;9818;48.382;10.850;2023-05-28T06:54:17;5.23;;;3.57;;
19364;SDS011;9818;48.382;10.850;2023-05-28T06:56:46;3.93;;;3.50;;
19364;SDS011;9818;48.382;10.850;2023-05-28T06:59:15;4.97;;;3.50;;
19364;SDS011;9818;48.382;10.850;2023-05-28T07:01:44;5.17;;;3.63;;
19364;SDS011;9818;48.382;10.850;2023-05-28T07:04:15;4.77;;;4.03;;
19364;SDS011;9818;48.382;10.850;2023-05-28T07:06:43;5.40;;;3.60;;
19364;SDS011;9818;48.382;10.850;2023-05-28T07:09:12;5.07;;;3.90;;
19364;SDS011;9818;48.382;10.850;2023-05-28T07:11:41;4.63;;;3.57;;
19364;SDS011;9818;48.382;10.850;2023-05-28T07:14:09;5.23;;;3.77;;
19364;SDS011;9818;48.382;10.850;2023-05-28T07:16:38;5.97;;;3.50;;
19364;SDS011;9818;48.382;10.850;2023-05-28T07:19:07;4.60;;;3.70;;
19364;SDS011;9818;48.382;10.850;2023-05-28T07:21:38;4.57;;;3.40;;
19364;SDS011;9818;48.382;10.850;2023-05-28T07:24:07;4.20;;;3.50;;
19364;SDS011;9818;48.382;10.850;2023-05-28T07:26:35;3.97;;;3.03;;
19364;SDS011;9818;48.382;10.850;2023-05-28T07:29:05;3.97;;;3.00;;
19364;SDS011;9818;48.382;10.850;2023-05-28T07:31:33;6.23;;;3.70;;
19364;SDS011;9818;48.382;10.850;2023-05-28T07:34:03;5.33;;;3.57;;
19364;SDS011;9818;48.382;10.850;2023-05-28T07:36:32;4.47;;;3.40;;
19364;SDS011;9818;48.382;10.850;2023-05-28T07:39:03;4.80;;;3.60;;
19364;SDS011;9818;48.382;10.850;2023-05-28T07:41:32;5.20;;;3.83;;
19364;SDS011;9818;48.382;10.850;2023-05-28T07:44:02;5.90;;;3.70;;
19364;SDS011;9818;48.382;10.850;2023-05-28T07:46:31;6.37;;;3.23;;
19364;SDS011;9818;48.382;10.850;2023-05-28T07:49:00;4.30;;;3.53;;
19364;SDS011;9818;48.382;10.850;2023-05-28T07:51:29;4.77;;;3.53;;
19364;SDS011;9818;48.382;10.850;2023-05-28T07:53:58;5.13;;;3.67;;
19364;SDS011;9818;48.382;10.850;2023-05-28T07:56:29;5.23;;;3.53;;
19364;SDS011;9818;48.382;10.850;2023-05-28T07:58:57;4.90;;;3.60;;
19364;SDS011;9818;48.382;10.850;2023-05-28T08:01:26;5.00;;;3.40;;
19364;SDS011;9818;48.382;10.850;2023-05-28T08:03:55;5.33;;;3.77;;
19364;SDS011;9818;48.382;10.850;2023-05-28T08:06:23;5.90;;;3.83;;
19364;SDS011;9818;48.382;10.850;2023-05-28T08:08:53;5.07;;;3.37;;
19364;SDS011;9818;48.382;10.850;2023-05-28T08:11:21;5.07;;;3.30;;
19364;SDS011;9818;48.382;10.850;2023-05-28T08:13:53;6.13;;;4.07;;
19364;SDS011;9818;48.382;10.850;2023-05-28T08:16:22;4.47;;;3.60;;
19364;SDS011;9818;48.382;10.850;2023-05-28T08:18:52;4.40;;;3.47;;
19364;SDS011;9818;48.382;10.850;2023-05-28T08:21:20;5.30;;;3.60;;
19364;SDS011;9818;48.382;10.850;2023-05-28T08:23:49;5.27;;;3.57;;
19364;SDS011;9818;48.382;10.850;2023-05-28T08:26:17;7.07;;;3.83;;
19364;SDS011;9818;48.382;10.850;2023-05-28T08:28:46;4.57;;;3.40;;
19364;SDS011;9818;48.382;10.850;2023-05-28T08:31:18;4.53;;;3.50;;
19364;SDS011;9818;48.382;10.850;2023-05-28T08:33:47;5.37;;;3.27;;
19364;SDS011;9818;48.382;10.850;2023-05-28T08:36:15;4.30;;;3.33;;
19364;SDS011;9818;48.382;10.850;2023-05-28T08:38:45;5.20;;;3.53;;
19364;SDS011;9818;48.382;10.850;2023-05-28T08:41:15;3.97;;;3.30;;
19364;SDS011;9818;48.382;10.850;2023-05-28T08:43:44;3.67;;;3.23;;
19364;SDS011;9818;48.382;10.850;2023-05-28T08:46:12;5.23;;;3.50;;
19364;SDS011;9818;48.382;10.850;2023-05-28T08:48:44;5.57;;;3.47;;
19364;SDS011;9818;48.382;10.850;2023-05-28T08:51:13;5.57;;;3.57;;
19364;SDS011;9818;48.382;10.850;2023-05-28T08:53:43;4.43;;;3.37;;
19364;SDS011;9818;48.382;10.850;2023-05-28T08:56:14;4.13;;;3.43;;
19364;SDS011;9818;48.382;10.850;2023-05-28T08:58:43;4.27;;;3.50;;
19364;SDS011;9818;48.382;10.850;2023-05-28T09:01:12;4.73;;;3.37;;
19364;SDS011;9818;48.382;10.850;2023-05-28T09:03:44;4.83;;;3.57;;
19364;SDS011;9818;48.382;10.850;2023-05-28T09:06:13;4.63;;;3.63;;
19364;SDS011;9818;48.382;10.850;2023-05-28T09:08:43;4.13;;;3.53;;
19364;SDS011;9818;48.382;10.850;2023-05-28T09:11:12;5.60;;;3.60;;
19364;SDS011;9818;48.382;10.850;2023-05-28T09:13:42;4.83;;;3.53;;
19364;SDS011;9818;48.382;10.850;2023-05-28T09:16:11;3.53;;;3.10;;
19364;SDS011;9818;48.382;10.850;2023-05-28T09:18:51;3.87;;;3.27;;
19364;SDS011;9818;48.382;10.850;2023-05-28T09:21:29;5.43;;;3.40;;
19364;SDS011;9818;48.382;10.850;2023-05-28T09:23:58;4.03;;;3.10;;
19364;SDS011;9818;48.382;10.850;2023-05-28T09:26:28;4.07;;;3.10;;
19364;SDS011;9818;48.382;10.850;2023-05-28T09:28:57;4.67;;;3.73;;
19364;SDS011;9818;48.382;10.850;2023-05-28T09:31:29;4.27;;;3.50;;
19364;SDS011;9818;48.382;10.850;2023-05-28T09:34:03;5.40;;;3.30;;
19364;SDS011;9818;48.382;10.850;2023-05-28T09:36:33;3.83;;;3.27;;
19364;SDS011;9818;48.382;10.850;2023-05-28T09:39:05;4.47;;;3.40;;
19364;SDS011;9818;48.382;10.850;2023-05-28T09:41:35;4.90;;;3.63;;
19364;SDS011;9818;48.382;10.850;2023-05-28T09:44:09;4.40;;;3.30;;
19364;SDS011;9818;48.382;10.850;2023-05-28T09:46:38;3.73;;;2.97;;
19364;SDS011;9818;48.382;10.850;2023-05-28T09:49:09;4.90;;;3.30;;
19364;SDS011;9818;48.382;10.850;2023-05-28T09:51:38;4.93;;;3.60;;
19364;SDS011;9818;48.382;10.850;2023-05-28T09:54:10;4.37;;;3.30;;
19364;SDS011;9818;48.382;10.850;2023-05-28T09:56:39;3.50;;;2.90;;
19364;SDS011;9818;48.382;10.850;2023-05-28T09:59:10;4.40;;;3.33;;
19364;SDS011;9818;48.382;10.850;2023-05-28T10:01:44;4.07;;;2.73;;
19364;SDS011;9818;48.382;10.850;2023-05-28T10:04:23;4.93;;;2.93;;
19364;SDS011;9818;48.382;10.850;2023-05-28T10:06:59;4.20;;;3.23;;
19364;SDS011;9818;48.382;10.850;2023-05-28T10:09:28;4.47;;;3.17;;
19364;SDS011;9818;48.382;10.850;2023-05-28T10:12:02;4.53;;;2.83;;
19364;SDS011;9818;48.382;10.850;2023-05-28T10:14:44;4.23;;;3.10;;
19364;SDS011;9818;48.382;10.850;2023-05-28T10:17:14;4.20;;;3.23;;
19364;SDS011;9818;48.382;10.850;2023-05-28T10:19:47;4.67;;;3.50;;
19364;SDS011;9818;48.382;10.850;2023-05-28T10:22:16;3.03;;;2.63;;
19364;SDS011;9818;48.382;10.850;2023-05-28T10:24:45;4.23;;;3.07;;
19364;SDS011;9818;48.382;10.850;2023-05-28T10:27:15;3.87;;;3.17;;
19364;SDS011;9818;48.382;10.850;2023-05-28T10:29:44;3.60;;;3.00;;
19364;SDS011;9818;48.382;10.850;2023-05-28T10:32:13;4.03;;;3.10;;
19364;SDS011;9818;48.382;10.850;2023-05-28T10:34:43;4.03;;;3.40;;
19364;SDS011;9818;48.382;10.850;2023-05-28T10:37:14;4.27;;;3.20;;
19364;SDS011;9818;48.382;10.850;2023-05-28T10:39:51;4.33;;;3.30;;
19364;SDS011;9818;48.382;10.850;2023-05-28T10:42:20;3.60;;;2.83;;
19364;SDS011;9818;48.382;10.850;2023-05-28T10:44:49;4.10;;;3.13;;
19364;SDS011;9818;48.382;10.850;2023-05-28T10:47:19;4.47;;;2.90;;
19364;SDS011;9818;48.382;10.850;2023-05-28T10:49:59;4.40;;;3.17;;
19364;SDS011;9818;48.382;10.850;2023-05-28T10:52:31;5.30;;;2.83;;
19364;SDS011;9818;48.382;10.850;2023-05-28T10:55:01;3.47;;;2.87;;
19364;SDS011;9818;48.382;10.850;2023-05-28T10:57:38;5.07;;;3.03;;
19364;SDS011;9818;48.382;10.850;2023-05-28T11:00:08;3.27;;;2.90;;
19364;SDS011;9818;48.382;10.850;2023-05-28T11:02:39;3.70;;;2.70;;
19364;SDS011;9818;48.382;10.850;2023-05-28T11:05:10;2.90;;;2.60;;
19364;SDS011;9818;48.382;10.850;2023-05-28T11:07:41;4.73;;;3.17;;
19364;SDS011;9818;48.382;10.850;2023-05-28T11:10:11;4.70;;;3.33;;
19364;SDS011;9818;48.382;10.850;2023-05-28T11:12:42;3.73;;;3.00;;
19364;SDS011;9818;48.382;10.850;2023-05-28T11:15:13;5.33;;;3.13;;
19364;SDS011;9818;48.382;10.850;2023-05-28T11:17:42;3.70;;;3.00;;
19364;SDS011;9818;48.382;10.850;2023-05-28T11:20:16;3.73;;;3.00;;
19364;SDS011;9818;48.382;10.850;2023-05-28T11:22:48;3.17;;;2.87;;
19364;SDS011;9818;48.382;10.850;2023-05-28T11:25:17;3.80;;;3.00;;
19364;SDS011;9818;48.382;10.850;2023-05-28T11:27:47;3.77;;;3.00;;
19364;SDS011;9818;48.382;10.850;2023-05-28T11:30:17;4.07;;;3.37;;
19364;SDS011;9818;48.382;10.850;2023-05-28T11:32:47;4.30;;;3.20;;
19364;SDS011;9818;48.382;10.850;2023-05-28T11:35:16;4.33;;;3.20;;
19364;SDS011;9818;48.382;10.850;2023-05-28T11:37:48;4.60;;;3.30;;
19364;SDS011;9818;48.382;10.850;2023-05-28T11:40:18;4.37;;;3.10;;
19364;SDS011;9818;48.382;10.850;2023-05-28T11:42:46;4.20;;;3.10;;
19364;SDS011;9818;48.382;10.850;2023-05-28T11:45:15;4.13;;;3.17;;
19364;SDS011;9818;48.382;10.850;2023-05-28T11:47:46;5.03;;;3.00;;
19364;SDS011;9818;48.382;10.850;2023-05-28T11:50:15;6.13;;;3.30;;
19364;SDS011;9818;48.382;10.850;2023-05-28T11:52:44;3.57;;;2.97;;
19364;SDS011;9818;48.382;10.850;2023-05-28T11:55:17;4.43;;;3.10;;
19364;SDS011;9818;48.382;10.850;2023-05-28T11:57:52;6.00;;;3.40;;
19364;SDS011;9818;48.382;10.850;2023-05-28T12:00:29;6.23;;;3.10;;
19364;SDS011;9818;48.382;10.850;2023-05-28T12:03:01;4.43;;;3.10;;
19364;SDS011;9818;48.382;10.850;2023-05-28T12:05:35;3.53;;;3.03;;
19364;SDS011;9818;48.382;10.850;2023-05-28T12:08:09;3.77;;;3.20;;
19364;SDS011;9818;48.382;10.850;2023-05-28T12:10:38;3.67;;;3.17;;
19364;SDS011;9818;48.382;10.850;2023-05-28T12:13:07;3.20;;;2.90;;
19364;SDS011;9818;48.382;10.850;2023-05-28T12:15:35;4.47;;;3.00;;
19364;SDS011;9818;48.382;10.850;2023-05-28T12:18:04;3.10;;;2.70;;
19364;SDS011;9818;48.382;10.850;2023-05-28T12:20:39;4.07;;;3.13;;
19364;SDS011;9818;48.382;10.850;2023-05-28T12:23:12;3.70;;;2.80;;
19364;SDS011;9818;48.382;10.850;2023-05-28T12:25:47;4.00;;;3.20;;
19364;SDS011;9818;48.382;10.850;2023-05-28T12:28:18;4.03;;;3.30;;
19364;SDS011;9818;48.382;10.850;2023-05-28T12:30:48;5.50;;;3.07;;
19364;SDS011;9818;48.382;10.850;2023-05-28T12:33:19;4.10;;;2.97;;
19364;SDS011;9818;48.382;10.850;2023-05-28T12:35:49;3.73;;;2.93;;
19364;SDS011;9818;48.382;10.850;2023-05-28T12:38:20;4.90;;;3.20;;
19364;SDS011;9818;48.382;10.850;2023-05-28T12:40:49;3.77;;;3.07;;
19364;SDS011;9818;48.382;10.850;2023-05-28T12:43:17;4.30;;;3.37;;
19364;SDS011;9818;48.382;10.850;2023-05-28T12:45:46;3.67;;;3.27;;
19364;SDS011;9818;48.382;10.850;2023-05-28T12:48:15;4.17;;;3.30;;
19364;SDS011;9818;48.382;10.850;2023-05-28T12:50:43;4.07;;;3.03;;
19364;SDS011;9818;48.382;10.850;2023-05-28T12:53:12;4.10;;;3.20;;
19364;SDS011;9818;48.382;10.850;2023-05-28T12:55:43;3.57;;;3.13;;
19364;SDS011;9818;48.382;10.850;2023-05-28T12:58:12;3.40;;;3.10;;
19364;SDS011;9818;48.382;10.850;2023-05-28T13:00:41;4.30;;;3.40;;
19364;SDS011;9818;48.382;10.850;2023-05-28T13:03:09;3.90;;;3.10;;
19364;SDS011;9818;48.382;10.850;2023-05-28T13:05:38;4.43;;;3.30;;
19364;SDS011;9818;48.382;10.850;2023-05-28T13:08:07;3.70;;;3.10;;
19364;SDS011;9818;48.382;10.850;2023-05-28T13:10:35;4.33;;;3.30;;
19364;SDS011;9818;48.382;10.850;2023-05-28T13:13:06;5.57;;;3.40;;
19364;SDS011;9818;48.382;10.850;2023-05-28T13:15:35;3.70;;;3.00;;
19364;SDS011;9818;48.382;10.850;2023-05-28T13:18:04;3.50;;;3.10;;
19364;SDS011;9818;48.382;10.850;2023-05-28T13:20:32;3.77;;;3.20;;
19364;SDS011;9818;48.382;10.850;2023-05-28T13:23:01;4.20;;;3.30;;
19364;SDS011;9818;48.382;10.850;2023-05-28T13:25:30;4.77;;;3.50;;
19364;SDS011;9818;48.382;10.850;2023-05-28T13:28:02;3.80;;;3.13;;
19364;SDS011;9818;48.382;10.850;2023-05-28T13:30:33;4.97;;;3.13;;
19364;SDS011;9818;48.382;10.850;2023-05-28T13:33:02;4.20;;;3.27;;
19364;SDS011;9818;48.382;10.850;2023-05-28T13:35:31;3.70;;;3.07;;
19364;SDS011;9818;48.382;10.850;2023-05-28T13:37:59;3.27;;;2.97;;
19364;SDS011;9818;48.382;10.850;2023-05-28T13:40:28;4.50;;;3.27;;
19364;SDS011;9818;48.382;10.850;2023-05-28T13:42:58;4.47;;;3.40;;
19364;SDS011;9818;48.382;10.850;2023-05-28T13:45:26;4.20;;;3.30;;
19364;SDS011;9818;48.382;10.850;2023-05-28T13:48:00;3.80;;;3.17;;
19364;SDS011;9818;48.382;10.850;2023-05-28T13:50:29;5.37;;;3.40;;
19364;SDS011;9818;48.382;10.850;2023-05-28T13:52:58;6.73;;;3.80;;
19364;SDS011;9818;48.382;10.850;2023-05-28T13:55:27;5.57;;;3.63;;
19364;SDS011;9818;48.382;10.850;2023-05-28T13:57:55;5.20;;;3.57;;
19364;SDS011;9818;48.382;10.850;2023-05-28T14:00:24;5.77;;;3.63;;
19364;SDS011;9818;48.382;10.850;2023-05-28T14:02:52;5.33;;;3.37;;
19364;SDS011;9818;48.382;10.850;2023-05-28T14:05:24;4.07;;;3.20;;
19364;SDS011;9818;48.382;10.850;2023-05-28T14:07:52;5.63;;;3.50;;
19364;SDS011;9818;48.382;10.850;2023-05-28T14:10:21;4.83;;;3.67;;
19364;SDS011;9818;48.382;10.850;2023-05-28T14:12:50;6.07;;;3.50;;
19364;SDS011;9818;48.382;10.850;2023-05-28T14:15:20;4.00;;;3.43;;
19364;SDS011;9818;48.382;10.850;2023-05-28T14:17:48;5.70;;;3.67;;
19364;SDS011;9818;48.382;10.850;2023-05-28T14:20:17;4.30;;;3.30;;
19364;SDS011;9818;48.382;10.850;2023-05-28T14:22:48;3.93;;;3.13;;
19364;SDS011;9818;48.382;10.850;2023-05-28T14:25:17;5.97;;;3.67;;
19364;SDS011;9818;48.382;10.850;2023-05-28T14:27:46;4.50;;;3.43;;
19364;SDS011;9818;48.382;10.850;2023-05-28T14:30:15;5.00;;;3.47;;
19364;SDS011;9818;48.382;10.850;2023-05-28T14:32:43;5.50;;;3.40;;
19364;SDS011;9818;48.382;10.850;2023-05-28T14:35:12;5.33;;;3.53;;
19364;SDS011;9818;48.382;10.850;2023-05-28T14:37:40;5.57;;;4.00;;
19364;SDS011;9818;48.382;10.850;2023-05-28T14:40:13;4.80;;;3.57;;
19364;SDS011;9818;48.382;10.850;2023-05-28T14:42:42;4.33;;;3.37;;
19364;SDS011;9818;48.382;10.850;2023-05-28T14:45:10;5.07;;;3.43;;
19364;SDS011;9818;48.382;10.850;2023-05-28T14:47:40;4.40;;;3.30;;
19364;SDS011;9818;48.382;10.850;2023-05-28T14:50:09;4.83;;;3.27;;
19364;SDS011;9818;48.382;10.850;2023-05-28T14:52:38;4.37;;;3.50;;
19364;SDS011;9818;48.382;10.850;2023-05-28T14:55:07;4.33;;;3.43;;
19364;SDS011;9818;48.382;10.850;2023-05-28T14:57:38;3.40;;;3.10;;
19364;SDS011;9818;48.382;10.850;2023-05-28T15:00:07;5.60;;;3.73;;
19364;SDS011;9818;48.382;10.850;2023-05-28T15:02:36;4.30;;;3.50;;